sensor_id;sensor_type;location;lat;lon;timestamp;P1;durP1;ratioP1;P2;durP2;ratioP2
20894;SDS011;10607;42.066;24.742;2023-02-23T00:01:46;9.33;;;5.97;;
20894;SDS011;10607;42.066;24.742;2023-02-23T00:04:11;11.57;;;6.33;;
20894;SDS011;10607;42.066;24.742;2023-02-23T00:06:37;14.53;;;7.20;;
20894;SDS011;10607;42.066;24.742;2023-02-23T00:09:03;12.13;;;6.40;;
20894;SDS011;10607;42.066;24.742;2023-02-23T00:11:56;9.03;;;5.77;;
20894;SDS011;10607;42.066;24.742;2023-02-23T00:14:26;11.53;;;6.43;;
20894;SDS011;10607;42.066;24.742;2023-02-23T00:16:51;10.00;;;5.70;;
20894;SDS011;10607;42.066;24.742;2023-02-23T00:19:17;10.93;;;5.73;;
20894;SDS011;10607;42.066;24.742;2023-02-23T00:21:42;13.13;;;6.80;;
20894;SDS011;10607;42.066;24.742;2023-02-23T00:24:10;8.87;;;5.20;;
20894;SDS011;10607;42.066;24.742;2023-02-23T00:26:36;8.90;;;5.23;;
20894;SDS011;10607;42.066;24.742;2023-02-23T00:29:03;9.90;;;5.10;;
20894;SDS011;10607;42.066;24.742;2023-02-23T00:31:28;10.17;;;4.60;;
20894;SDS011;10607;42.066;24.742;2023-02-23T00:33:57;6.10;;;4.10;;
20894;SDS011;10607;42.066;24.742;2023-02-23T00:36:25;8.60;;;4.40;;
20894;SDS011;10607;42.066;24.742;2023-02-23T00:38:54;7.30;;;4.20;;
20894;SDS011;10607;42.066;24.742;2023-02-23T00:41:19;8.30;;;3.97;;
20894;SDS011;10607;42.066;24.742;2023-02-23T00:43:48;5.90;;;3.63;;
20894;SDS011;10607;42.066;24.742;2023-02-23T00:46:14;10.67;;;4.60;;
20894;SDS011;10607;42.066;24.742;2023-02-23T00:48:45;7.40;;;4.40;;
20894;SDS011;10607;42.066;24.742;2023-02-23T00:51:10;7.07;;;4.20;;
20894;SDS011;10607;42.066;24.742;2023-02-23T00:53:36;6.47;;;3.63;;
20894;SDS011;10607;42.066;24.742;2023-02-23T00:56:04;9.90;;;4.40;;
20894;SDS011;10607;42.066;24.742;2023-02-23T00:58:30;7.23;;;4.40;;
20894;SDS011;10607;42.066;24.742;2023-02-23T01:00:55;6.77;;;4.00;;
20894;SDS011;10607;42.066;24.742;2023-02-23T01:03:21;7.57;;;4.50;;
20894;SDS011;10607;42.066;24.742;2023-02-23T01:05:46;8.60;;;4.23;;
20894;SDS011;10607;42.066;24.742;2023-02-23T01:08:14;8.30;;;4.17;;
20894;SDS011;10607;42.066;24.742;2023-02-23T01:10:40;6.50;;;3.60;;
20894;SDS011;10607;42.066;24.742;2023-02-23T01:13:09;7.37;;;3.77;;
20894;SDS011;10607;42.066;24.742;2023-02-23T01:15:39;8.93;;;4.37;;
20894;SDS011;10607;42.066;24.742;2023-02-23T01:18:05;7.43;;;3.90;;
20894;SDS011;10607;42.066;24.742;2023-02-23T01:20:33;7.33;;;3.80;;
20894;SDS011;10607;42.066;24.742;2023-02-23T01:23:00;8.77;;;4.57;;
20894;SDS011;10607;42.066;24.742;2023-02-23T01:25:25;8.33;;;4.00;;
20894;SDS011;10607;42.066;24.742;2023-02-23T01:27:53;6.60;;;4.03;;
20894;SDS011;10607;42.066;24.742;2023-02-23T01:30:18;5.87;;;4.23;;
20894;SDS011;10607;42.066;24.742;2023-02-23T01:32:43;10.37;;;4.33;;
20894;SDS011;10607;42.066;24.742;2023-02-23T01:35:09;8.13;;;5.23;;
20894;SDS011;10607;42.066;24.742;2023-02-23T01:37:38;6.70;;;3.97;;
20894;SDS011;10607;42.066;24.742;2023-02-23T01:40:05;9.67;;;4.57;;
20894;SDS011;10607;42.066;24.742;2023-02-23T01:42:38;9.20;;;5.53;;
20894;SDS011;10607;42.066;24.742;2023-02-23T01:45:18;11.37;;;5.50;;
20894;SDS011;10607;42.066;24.742;2023-02-23T01:47:45;11.60;;;5.57;;
20894;SDS011;10607;42.066;24.742;2023-02-23T01:50:11;10.70;;;6.07;;
20894;SDS011;10607;42.066;24.742;2023-02-23T01:52:40;10.00;;;6.03;;
20894;SDS011;10607;42.066;24.742;2023-02-23T01:55:06;10.17;;;6.43;;
20894;SDS011;10607;42.066;24.742;2023-02-23T01:57:37;10.53;;;5.60;;
20894;SDS011;10607;42.066;24.742;2023-02-23T02:00:02;11.83;;;6.20;;
20894;SDS011;10607;42.066;24.742;2023-02-23T02:02:31;9.37;;;5.10;;
20894;SDS011;10607;42.066;24.742;2023-02-23T02:04:57;7.73;;;4.43;;
20894;SDS011;10607;42.066;24.742;2023-02-23T02:07:24;9.07;;;4.80;;
20894;SDS011;10607;42.066;24.742;2023-02-23T02:09:51;9.20;;;4.80;;
20894;SDS011;10607;42.066;24.742;2023-02-23T02:12:36;10.73;;;5.00;;
20894;SDS011;10607;42.066;24.742;2023-02-23T02:15:02;11.53;;;5.70;;
20894;SDS011;10607;42.066;24.742;2023-02-23T02:17:47;9.93;;;5.40;;
20894;SDS011;10607;42.066;24.742;2023-02-23T02:20:28;10.13;;;4.80;;
20894;SDS011;10607;42.066;24.742;2023-02-23T02:33:42;7.93;;;5.03;;
20894;SDS011;10607;42.066;24.742;2023-02-23T02:44:01;12.43;;;5.87;;
20894;SDS011;10607;42.066;24.742;2023-02-23T02:46:34;8.87;;;5.40;;
20894;SDS011;10607;42.066;24.742;2023-02-23T02:51:42;9.70;;;5.57;;
20894;SDS011;10607;42.066;24.742;2023-02-23T02:54:19;9.10;;;5.30;;
20894;SDS011;10607;42.066;24.742;2023-02-23T02:56:47;7.37;;;5.57;;
20894;SDS011;10607;42.066;24.742;2023-02-23T02:59:15;9.27;;;5.70;;
20894;SDS011;10607;42.066;24.742;2023-02-23T03:02:00;9.93;;;5.77;;
20894;SDS011;10607;42.066;24.742;2023-02-23T03:04:44;7.10;;;5.70;;
20894;SDS011;10607;42.066;24.742;2023-02-23T03:07:30;10.17;;;5.83;;
20894;SDS011;10607;42.066;24.742;2023-02-23T03:10:33;14.20;;;5.87;;
20894;SDS011;10607;42.066;24.742;2023-02-23T03:16:22;8.80;;;4.93;;
20894;SDS011;10607;42.066;24.742;2023-02-23T03:25:15;8.97;;;5.13;;
20894;SDS011;10607;42.066;24.742;2023-02-23T03:34:11;8.03;;;5.60;;
20894;SDS011;10607;42.066;24.742;2023-02-23T03:37:00;12.30;;;5.50;;
20894;SDS011;10607;42.066;24.742;2023-02-23T03:39:58;9.10;;;5.23;;
20894;SDS011;10607;42.066;24.742;2023-02-23T03:42:44;13.80;;;5.30;;
20894;SDS011;10607;42.066;24.742;2023-02-23T03:45:28;8.70;;;5.37;;
20894;SDS011;10607;42.066;24.742;2023-02-23T03:48:12;11.13;;;5.60;;
20894;SDS011;10607;42.066;24.742;2023-02-23T03:51:00;8.77;;;4.70;;
20894;SDS011;10607;42.066;24.742;2023-02-23T03:53:47;9.60;;;5.30;;
20894;SDS011;10607;42.066;24.742;2023-02-23T03:56:32;7.63;;;5.00;;
20894;SDS011;10607;42.066;24.742;2023-02-23T03:59:18;9.43;;;5.47;;
20894;SDS011;10607;42.066;24.742;2023-02-23T04:02:02;9.97;;;6.10;;
20894;SDS011;10607;42.066;24.742;2023-02-23T04:04:48;8.30;;;5.47;;
20894;SDS011;10607;42.066;24.742;2023-02-23T04:07:32;9.43;;;5.60;;
20894;SDS011;10607;42.066;24.742;2023-02-23T04:10:17;15.97;;;5.40;;
20894;SDS011;10607;42.066;24.742;2023-02-23T04:13:02;11.13;;;7.13;;
20894;SDS011;10607;42.066;24.742;2023-02-23T04:16:00;14.83;;;7.57;;
20894;SDS011;10607;42.066;24.742;2023-02-23T04:18:25;15.93;;;7.70;;
20894;SDS011;10607;42.066;24.742;2023-02-23T04:20:51;17.57;;;7.17;;
20894;SDS011;10607;42.066;24.742;2023-02-23T04:23:17;17.00;;;7.33;;
20894;SDS011;10607;42.066;24.742;2023-02-23T04:25:43;11.63;;;7.27;;
20894;SDS011;10607;42.066;24.742;2023-02-23T04:28:08;15.03;;;8.20;;
20894;SDS011;10607;42.066;24.742;2023-02-23T04:30:33;11.50;;;7.20;;
20894;SDS011;10607;42.066;24.742;2023-02-23T04:32:59;14.07;;;7.10;;
20894;SDS011;10607;42.066;24.742;2023-02-23T04:35:24;10.87;;;5.63;;
20894;SDS011;10607;42.066;24.742;2023-02-23T04:37:52;11.10;;;5.70;;
20894;SDS011;10607;42.066;24.742;2023-02-23T04:40:17;18.30;;;7.13;;
20894;SDS011;10607;42.066;24.742;2023-02-23T04:42:42;13.80;;;6.17;;
20894;SDS011;10607;42.066;24.742;2023-02-23T04:45:08;12.67;;;7.60;;
20894;SDS011;10607;42.066;24.742;2023-02-23T04:47:33;13.43;;;6.47;;
20894;SDS011;10607;42.066;24.742;2023-02-23T04:49:59;12.23;;;6.57;;
20894;SDS011;10607;42.066;24.742;2023-02-23T04:52:24;19.83;;;9.10;;
20894;SDS011;10607;42.066;24.742;2023-02-23T04:54:49;9.77;;;5.63;;
20894;SDS011;10607;42.066;24.742;2023-02-23T04:57:14;11.13;;;6.63;;
20894;SDS011;10607;42.066;24.742;2023-02-23T04:59:40;11.33;;;5.43;;
20894;SDS011;10607;42.066;24.742;2023-02-23T05:02:05;10.73;;;5.93;;
20894;SDS011;10607;42.066;24.742;2023-02-23T05:04:31;12.07;;;6.13;;
20894;SDS011;10607;42.066;24.742;2023-02-23T05:06:58;11.70;;;6.33;;
20894;SDS011;10607;42.066;24.742;2023-02-23T05:09:24;10.47;;;5.23;;
20894;SDS011;10607;42.066;24.742;2023-02-23T05:11:49;13.40;;;6.10;;
20894;SDS011;10607;42.066;24.742;2023-02-23T05:14:15;8.20;;;4.93;;
20894;SDS011;10607;42.066;24.742;2023-02-23T05:16:40;11.57;;;6.03;;
20894;SDS011;10607;42.066;24.742;2023-02-23T05:19:05;11.23;;;5.70;;
20894;SDS011;10607;42.066;24.742;2023-02-23T05:21:31;11.63;;;5.47;;
20894;SDS011;10607;42.066;24.742;2023-02-23T05:23:56;8.03;;;5.60;;
20894;SDS011;10607;42.066;24.742;2023-02-23T05:26:22;7.87;;;5.33;;
20894;SDS011;10607;42.066;24.742;2023-02-23T05:28:47;7.83;;;5.60;;
20894;SDS011;10607;42.066;24.742;2023-02-23T05:31:13;11.40;;;5.63;;
20894;SDS011;10607;42.066;24.742;2023-02-23T05:33:38;11.07;;;9.27;;
20894;SDS011;10607;42.066;24.742;2023-02-23T05:36:07;13.67;;;7.30;;
20894;SDS011;10607;42.066;24.742;2023-02-23T05:38:32;10.80;;;5.93;;
20894;SDS011;10607;42.066;24.742;2023-02-23T05:40:58;9.30;;;5.53;;
20894;SDS011;10607;42.066;24.742;2023-02-23T05:43:23;15.80;;;7.00;;
20894;SDS011;10607;42.066;24.742;2023-02-23T05:45:48;8.53;;;6.10;;
20894;SDS011;10607;42.066;24.742;2023-02-23T05:48:14;12.87;;;5.90;;
20894;SDS011;10607;42.066;24.742;2023-02-23T05:50:39;11.67;;;6.70;;
20894;SDS011;10607;42.066;24.742;2023-02-23T05:53:04;17.50;;;6.47;;
20894;SDS011;10607;42.066;24.742;2023-02-23T05:55:30;17.93;;;7.20;;
20894;SDS011;10607;42.066;24.742;2023-02-23T05:57:55;11.10;;;6.47;;
20894;SDS011;10607;42.066;24.742;2023-02-23T06:00:20;11.43;;;6.10;;
20894;SDS011;10607;42.066;24.742;2023-02-23T06:02:46;12.70;;;5.47;;
20894;SDS011;10607;42.066;24.742;2023-02-23T06:05:11;10.63;;;5.87;;
20894;SDS011;10607;42.066;24.742;2023-02-23T06:07:37;17.57;;;5.80;;
20894;SDS011;10607;42.066;24.742;2023-02-23T06:10:03;8.17;;;4.57;;
20894;SDS011;10607;42.066;24.742;2023-02-23T06:12:28;10.20;;;4.30;;
20894;SDS011;10607;42.066;24.742;2023-02-23T06:14:54;16.53;;;4.63;;
20894;SDS011;10607;42.066;24.742;2023-02-23T06:17:19;8.23;;;4.47;;
20894;SDS011;10607;42.066;24.742;2023-02-23T06:19:44;13.53;;;4.60;;
20894;SDS011;10607;42.066;24.742;2023-02-23T06:22:10;8.50;;;4.77;;
20894;SDS011;10607;42.066;24.742;2023-02-23T06:24:35;13.18;;;5.05;;
20894;SDS011;10607;42.066;24.742;2023-02-23T06:27:00;11.63;;;5.43;;
20894;SDS011;10607;42.066;24.742;2023-02-23T06:29:25;10.13;;;5.17;;
20894;SDS011;10607;42.066;24.742;2023-02-23T06:31:51;12.75;;;6.30;;
20894;SDS011;10607;42.066;24.742;2023-02-23T06:34:16;10.27;;;5.47;;
20894;SDS011;10607;42.066;24.742;2023-02-23T06:36:42;11.93;;;5.47;;
20894;SDS011;10607;42.066;24.742;2023-02-23T06:39:08;11.38;;;5.22;;
20894;SDS011;10607;42.066;24.742;2023-02-23T06:41:34;10.13;;;5.40;;
20894;SDS011;10607;42.066;24.742;2023-02-23T06:43:59;19.77;;;6.68;;
20894;SDS011;10607;42.066;24.742;2023-02-23T06:46:25;15.32;;;6.07;;
20894;SDS011;10607;42.066;24.742;2023-02-23T06:48:53;24.48;;;10.35;;
20894;SDS011;10607;42.066;24.742;2023-02-23T06:51:19;32.83;;;15.00;;
20894;SDS011;10607;42.066;24.742;2023-02-23T06:53:44;13.88;;;6.60;;
20894;SDS011;10607;42.066;24.742;2023-02-23T06:56:09;19.13;;;7.05;;
20894;SDS011;10607;42.066;24.742;2023-02-23T06:58:38;11.05;;;5.45;;
20894;SDS011;10607;42.066;24.742;2023-02-23T07:01:03;24.60;;;9.38;;
20894;SDS011;10607;42.066;24.742;2023-02-23T07:03:28;13.82;;;5.93;;
20894;SDS011;10607;42.066;24.742;2023-02-23T07:05:54;11.05;;;4.80;;
20894;SDS011;10607;42.066;24.742;2023-02-23T07:08:19;20.15;;;6.47;;
20894;SDS011;10607;42.066;24.742;2023-02-23T07:10:44;28.15;;;9.10;;
20894;SDS011;10607;42.066;24.742;2023-02-23T07:13:10;12.75;;;6.70;;
20894;SDS011;10607;42.066;24.742;2023-02-23T07:15:37;16.88;;;7.00;;
20894;SDS011;10607;42.066;24.742;2023-02-23T07:18:03;8.23;;;3.60;;
20894;SDS011;10607;42.066;24.742;2023-02-23T07:20:28;16.90;;;6.22;;
20894;SDS011;10607;42.066;24.742;2023-02-23T07:22:55;12.80;;;4.50;;
20894;SDS011;10607;42.066;24.742;2023-02-23T07:25:20;15.43;;;6.43;;
20894;SDS011;10607;42.066;24.742;2023-02-23T07:27:46;19.38;;;5.10;;
20894;SDS011;10607;42.066;24.742;2023-02-23T07:30:11;18.67;;;4.65;;
20894;SDS011;10607;42.066;24.742;2023-02-23T07:32:37;13.15;;;4.88;;
20894;SDS011;10607;42.066;24.742;2023-02-23T07:35:03;14.00;;;4.85;;
20894;SDS011;10607;42.066;24.742;2023-02-23T07:37:28;12.52;;;5.22;;
20894;SDS011;10607;42.066;24.742;2023-02-23T07:39:53;18.00;;;5.07;;
20894;SDS011;10607;42.066;24.742;2023-02-23T07:42:19;13.07;;;5.70;;
20894;SDS011;10607;42.066;24.742;2023-02-23T07:44:44;14.60;;;5.20;;
20894;SDS011;10607;42.066;24.742;2023-02-23T07:47:10;14.35;;;4.57;;
20894;SDS011;10607;42.066;24.742;2023-02-23T07:49:35;17.95;;;5.45;;
20894;SDS011;10607;42.066;24.742;2023-02-23T07:52:00;10.60;;;4.25;;
20894;SDS011;10607;42.066;24.742;2023-02-23T07:54:25;12.27;;;5.13;;
20894;SDS011;10607;42.066;24.742;2023-02-23T07:56:51;13.13;;;4.32;;
20894;SDS011;10607;42.066;24.742;2023-02-23T07:59:17;10.88;;;4.30;;
20894;SDS011;10607;42.066;24.742;2023-02-23T08:01:42;7.57;;;4.00;;
20894;SDS011;10607;42.066;24.742;2023-02-23T08:04:07;10.57;;;4.28;;
20894;SDS011;10607;42.066;24.742;2023-02-23T08:06:33;13.55;;;4.65;;
20894;SDS011;10607;42.066;24.742;2023-02-23T08:08:58;11.93;;;4.07;;
20894;SDS011;10607;42.066;24.742;2023-02-23T08:11:25;9.77;;;4.45;;
20894;SDS011;10607;42.066;24.742;2023-02-23T08:13:53;10.25;;;5.05;;
20894;SDS011;10607;42.066;24.742;2023-02-23T08:16:18;14.40;;;4.75;;
20894;SDS011;10607;42.066;24.742;2023-02-23T08:18:44;11.50;;;4.60;;
20894;SDS011;10607;42.066;24.742;2023-02-23T08:21:10;14.88;;;5.63;;
20894;SDS011;10607;42.066;24.742;2023-02-23T08:23:35;9.75;;;4.10;;
20894;SDS011;10607;42.066;24.742;2023-02-23T08:26:01;12.07;;;5.13;;
20894;SDS011;10607;42.066;24.742;2023-02-23T08:28:27;11.80;;;5.63;;
20894;SDS011;10607;42.066;24.742;2023-02-23T08:30:52;12.10;;;5.18;;
20894;SDS011;10607;42.066;24.742;2023-02-23T08:33:18;12.38;;;5.13;;
20894;SDS011;10607;42.066;24.742;2023-02-23T08:35:43;10.75;;;4.95;;
20894;SDS011;10607;42.066;24.742;2023-02-23T08:38:09;17.20;;;5.88;;
20894;SDS011;10607;42.066;24.742;2023-02-23T08:40:34;15.43;;;5.97;;
20894;SDS011;10607;42.066;24.742;2023-02-23T08:43:00;13.48;;;6.00;;
20894;SDS011;10607;42.066;24.742;2023-02-23T08:45:25;17.30;;;6.05;;
20894;SDS011;10607;42.066;24.742;2023-02-23T08:47:53;16.08;;;5.43;;
20894;SDS011;10607;42.066;24.742;2023-02-23T08:50:18;14.63;;;6.43;;
20894;SDS011;10607;42.066;24.742;2023-02-23T08:52:44;12.90;;;6.35;;
20894;SDS011;10607;42.066;24.742;2023-02-23T08:55:09;14.00;;;6.30;;
20894;SDS011;10607;42.066;24.742;2023-02-23T08:57:35;12.15;;;6.68;;
20894;SDS011;10607;42.066;24.742;2023-02-23T09:00:02;12.43;;;7.15;;
20894;SDS011;10607;42.066;24.742;2023-02-23T09:02:27;25.40;;;6.28;;
20894;SDS011;10607;42.066;24.742;2023-02-23T09:04:53;12.18;;;5.60;;
20894;SDS011;10607;42.066;24.742;2023-02-23T09:07:19;19.67;;;6.43;;
20894;SDS011;10607;42.066;24.742;2023-02-23T09:09:54;10.32;;;4.93;;
20894;SDS011;10607;42.066;24.742;2023-02-23T09:12:20;15.75;;;5.63;;
20894;SDS011;10607;42.066;24.742;2023-02-23T09:14:45;12.70;;;4.80;;
20894;SDS011;10607;42.066;24.742;2023-02-23T09:17:10;11.95;;;4.93;;
20894;SDS011;10607;42.066;24.742;2023-02-23T09:19:36;10.68;;;5.03;;
20894;SDS011;10607;42.066;24.742;2023-02-23T09:22:02;16.40;;;5.82;;
20894;SDS011;10607;42.066;24.742;2023-02-23T09:24:27;14.05;;;5.60;;
20894;SDS011;10607;42.066;24.742;2023-02-23T09:26:52;16.67;;;5.88;;
20894;SDS011;10607;42.066;24.742;2023-02-23T09:29:17;13.63;;;5.72;;
20894;SDS011;10607;42.066;24.742;2023-02-23T09:31:43;17.70;;;6.13;;
20894;SDS011;10607;42.066;24.742;2023-02-23T09:34:08;14.75;;;5.53;;
20894;SDS011;10607;42.066;24.742;2023-02-23T09:36:34;11.95;;;6.32;;
20894;SDS011;10607;42.066;24.742;2023-02-23T09:38:59;18.42;;;6.75;;
20894;SDS011;10607;42.066;24.742;2023-02-23T09:46:40;8.80;;;5.05;;
20894;SDS011;10607;42.066;24.742;2023-02-23T09:49:19;13.70;;;6.22;;
20894;SDS011;10607;42.066;24.742;2023-02-23T09:51:46;17.08;;;6.30;;
20894;SDS011;10607;42.066;24.742;2023-02-23T09:54:12;18.35;;;5.72;;
20894;SDS011;10607;42.066;24.742;2023-02-23T09:56:39;11.18;;;5.18;;
20894;SDS011;10607;42.066;24.742;2023-02-23T09:59:10;21.33;;;5.00;;
20894;SDS011;10607;42.066;24.742;2023-02-23T10:04:55;11.60;;;5.25;;
20894;SDS011;10607;42.066;24.742;2023-02-23T10:12:34;11.25;;;5.13;;
20894;SDS011;10607;42.066;24.742;2023-02-23T10:15:14;16.25;;;5.22;;
20894;SDS011;10607;42.066;24.742;2023-02-23T10:17:53;12.07;;;4.95;;
20894;SDS011;10607;42.066;24.742;2023-02-23T10:23:03;12.38;;;4.55;;
20894;SDS011;10607;42.066;24.742;2023-02-23T10:25:30;13.13;;;5.10;;
20894;SDS011;10607;42.066;24.742;2023-02-23T10:27:57;10.55;;;5.85;;
20894;SDS011;10607;42.066;24.742;2023-02-23T10:30:24;13.27;;;5.50;;
20894;SDS011;10607;42.066;24.742;2023-02-23T10:32:55;10.10;;;4.68;;
20894;SDS011;10607;42.066;24.742;2023-02-23T10:35:21;8.07;;;5.15;;
20894;SDS011;10607;42.066;24.742;2023-02-23T10:37:47;10.15;;;5.25;;
20894;SDS011;10607;42.066;24.742;2023-02-23T10:40:17;20.30;;;6.07;;
20894;SDS011;10607;42.066;24.742;2023-02-23T10:42:45;14.60;;;5.40;;
20894;SDS011;10607;42.066;24.742;2023-02-23T10:45:14;12.90;;;5.90;;
20894;SDS011;10607;42.066;24.742;2023-02-23T10:47:43;13.38;;;5.78;;
20894;SDS011;10607;42.066;24.742;2023-02-23T10:50:09;10.63;;;5.05;;
20894;SDS011;10607;42.066;24.742;2023-02-23T10:52:42;13.23;;;6.00;;
20894;SDS011;10607;42.066;24.742;2023-02-23T10:55:23;11.52;;;5.68;;
20894;SDS011;10607;42.066;24.742;2023-02-23T10:57:49;12.32;;;6.65;;
20894;SDS011;10607;42.066;24.742;2023-02-23T11:02:42;12.50;;;6.28;;
20894;SDS011;10607;42.066;24.742;2023-02-23T11:05:25;14.43;;;6.22;;
20894;SDS011;10607;42.066;24.742;2023-02-23T11:07:51;13.30;;;6.28;;
20894;SDS011;10607;42.066;24.742;2023-02-23T11:10:32;16.30;;;6.68;;
20894;SDS011;10607;42.066;24.742;2023-02-23T11:12:58;15.07;;;5.53;;
20894;SDS011;10607;42.066;24.742;2023-02-23T11:20:43;9.57;;;4.82;;
20894;SDS011;10607;42.066;24.742;2023-02-23T11:23:14;7.97;;;4.40;;
20894;SDS011;10607;42.066;24.742;2023-02-23T11:25:41;10.40;;;4.65;;
20894;SDS011;10607;42.066;24.742;2023-02-23T11:28:14;14.00;;;5.53;;
20894;SDS011;10607;42.066;24.742;2023-02-23T11:30:41;7.43;;;4.57;;
20894;SDS011;10607;42.066;24.742;2023-02-23T11:33:07;13.23;;;4.57;;
20894;SDS011;10607;42.066;24.742;2023-02-23T11:35:36;9.20;;;4.45;;
20894;SDS011;10607;42.066;24.742;2023-02-23T11:38:14;10.15;;;5.47;;
20894;SDS011;10607;42.066;24.742;2023-02-23T11:40:40;12.10;;;6.05;;
20894;SDS011;10607;42.066;24.742;2023-02-23T11:43:07;8.73;;;4.97;;
20894;SDS011;10607;42.066;24.742;2023-02-23T11:45:37;10.02;;;5.25;;
20894;SDS011;10607;42.066;24.742;2023-02-23T11:48:03;9.70;;;4.43;;
20894;SDS011;10607;42.066;24.742;2023-02-23T11:50:37;11.55;;;5.25;;
20894;SDS011;10607;42.066;24.742;2023-02-23T11:53:12;9.13;;;4.90;;
20894;SDS011;10607;42.066;24.742;2023-02-23T11:55:39;9.13;;;4.60;;
20894;SDS011;10607;42.066;24.742;2023-02-23T11:58:17;11.07;;;4.88;;
20894;SDS011;10607;42.066;24.742;2023-02-23T12:00:56;7.82;;;4.75;;
20894;SDS011;10607;42.066;24.742;2023-02-23T12:03:22;15.70;;;4.95;;
20894;SDS011;10607;42.066;24.742;2023-02-23T12:05:50;11.57;;;4.72;;
20894;SDS011;10607;42.066;24.742;2023-02-23T12:10:57;8.90;;;4.88;;
20894;SDS011;10607;42.066;24.742;2023-02-23T12:16:02;12.25;;;5.45;;
20894;SDS011;10607;42.066;24.742;2023-02-23T12:18:36;11.07;;;6.13;;
20894;SDS011;10607;42.066;24.742;2023-02-23T12:21:09;27.20;;;7.78;;
20894;SDS011;10607;42.066;24.742;2023-02-23T12:23:37;11.40;;;6.28;;
20894;SDS011;10607;42.066;24.742;2023-02-23T12:26:11;15.10;;;7.13;;
20894;SDS011;10607;42.066;24.742;2023-02-23T12:33:39;19.63;;;8.60;;
20894;SDS011;10607;42.066;24.742;2023-02-23T12:38:56;17.90;;;8.90;;
20894;SDS011;10607;42.066;24.742;2023-02-23T12:41:30;14.55;;;8.45;;
20894;SDS011;10607;42.066;24.742;2023-02-23T12:43:58;23.63;;;11.43;;
20894;SDS011;10607;42.066;24.742;2023-02-23T12:46:26;18.60;;;10.07;;
20894;SDS011;10607;42.066;24.742;2023-02-23T12:48:59;28.23;;;12.35;;
20894;SDS011;10607;42.066;24.742;2023-02-23T12:51:48;22.33;;;11.15;;
20894;SDS011;10607;42.066;24.742;2023-02-23T12:54:15;25.88;;;13.18;;
20894;SDS011;10607;42.066;24.742;2023-02-23T13:04:17;39.90;;;19.48;;
20894;SDS011;10607;42.066;24.742;2023-02-23T13:12:18;34.83;;;17.30;;
20894;SDS011;10607;42.066;24.742;2023-02-23T13:17:37;33.13;;;16.60;;
20894;SDS011;10607;42.066;24.742;2023-02-23T13:20:14;33.65;;;17.38;;
20894;SDS011;10607;42.066;24.742;2023-02-23T13:22:44;31.02;;;17.15;;
20894;SDS011;10607;42.066;24.742;2023-02-23T13:25:56;33.38;;;16.80;;
20894;SDS011;10607;42.066;24.742;2023-02-23T13:27:58;36.67;;;17.80;;
20894;SDS011;10607;42.066;24.742;2023-02-23T13:30:24;42.88;;;18.35;;
20894;SDS011;10607;42.066;24.742;2023-02-23T13:32:49;37.42;;;17.50;;
20894;SDS011;10607;42.066;24.742;2023-02-23T13:35:16;36.10;;;17.58;;
20894;SDS011;10607;42.066;24.742;2023-02-23T13:37:47;35.08;;;16.08;;
20894;SDS011;10607;42.066;24.742;2023-02-23T13:56:09;38.17;;;20.05;;
20894;SDS011;10607;42.066;24.742;2023-02-23T13:58:35;39.78;;;18.25;;
20894;SDS011;10607;42.066;24.742;2023-02-23T14:01:08;43.22;;;19.73;;
20894;SDS011;10607;42.066;24.742;2023-02-23T14:03:38;42.78;;;19.73;;
20894;SDS011;10607;42.066;24.742;2023-02-23T14:06:04;35.88;;;19.48;;
20894;SDS011;10607;42.066;24.742;2023-02-23T14:08:33;46.45;;;21.40;;
20894;SDS011;10607;42.066;24.742;2023-02-23T14:10:59;44.67;;;20.45;;
20894;SDS011;10607;42.066;24.742;2023-02-23T14:16:12;37.85;;;19.30;;
20894;SDS011;10607;42.066;24.742;2023-02-23T14:21:27;43.58;;;21.02;;
20894;SDS011;10607;42.066;24.742;2023-02-23T14:29:13;41.10;;;20.10;;
20894;SDS011;10607;42.066;24.742;2023-02-23T14:34:21;43.10;;;21.75;;
20894;SDS011;10607;42.066;24.742;2023-02-23T14:36:49;41.28;;;21.70;;
20894;SDS011;10607;42.066;24.742;2023-02-23T14:39:24;52.20;;;22.55;;
20894;SDS011;10607;42.066;24.742;2023-02-23T14:41:52;38.63;;;18.10;;
20894;SDS011;10607;42.066;24.742;2023-02-23T14:49:35;34.70;;;19.20;;
20894;SDS011;10607;42.066;24.742;2023-02-23T14:52:05;41.20;;;21.45;;
20894;SDS011;10607;42.066;24.742;2023-02-23T14:54:35;39.10;;;20.83;;
20894;SDS011;10607;42.066;24.742;2023-02-23T14:57:02;42.85;;;20.48;;
20894;SDS011;10607;42.066;24.742;2023-02-23T14:59:29;38.70;;;20.50;;
20894;SDS011;10607;42.066;24.742;2023-02-23T15:01:59;36.35;;;19.48;;
20894;SDS011;10607;42.066;24.742;2023-02-23T15:04:25;37.03;;;19.92;;
20894;SDS011;10607;42.066;24.742;2023-02-23T15:06:54;38.60;;;20.10;;
20894;SDS011;10607;42.066;24.742;2023-02-23T15:09:24;43.95;;;21.10;;
20894;SDS011;10607;42.066;24.742;2023-02-23T15:11:54;45.25;;;19.77;;
20894;SDS011;10607;42.066;24.742;2023-02-23T15:14:20;37.55;;;19.58;;
20894;SDS011;10607;42.066;24.742;2023-02-23T15:16:46;35.80;;;19.55;;
20894;SDS011;10607;42.066;24.742;2023-02-23T15:19:14;34.58;;;19.92;;
20894;SDS011;10607;42.066;24.742;2023-02-23T15:21:41;34.22;;;18.52;;
20894;SDS011;10607;42.066;24.742;2023-02-23T15:24:10;43.70;;;21.27;;
20894;SDS011;10607;42.066;24.742;2023-02-23T15:26:36;40.35;;;20.50;;
20894;SDS011;10607;42.066;24.742;2023-02-23T15:31:31;42.97;;;21.70;;
20894;SDS011;10607;42.066;24.742;2023-02-23T15:33:56;41.28;;;21.95;;
20894;SDS011;10607;42.066;24.742;2023-02-23T15:36:28;42.22;;;22.05;;
20894;SDS011;10607;42.066;24.742;2023-02-23T15:38:55;41.17;;;19.98;;
20894;SDS011;10607;42.066;24.742;2023-02-23T15:41:31;43.43;;;20.70;;
20894;SDS011;10607;42.066;24.742;2023-02-23T15:44:12;44.40;;;21.97;;
20894;SDS011;10607;42.066;24.742;2023-02-23T15:46:38;43.70;;;21.30;;
20894;SDS011;10607;42.066;24.742;2023-02-23T15:49:05;45.60;;;22.80;;
20894;SDS011;10607;42.066;24.742;2023-02-23T15:51:37;50.10;;;22.02;;
20894;SDS011;10607;42.066;24.742;2023-02-23T15:54:09;49.38;;;22.70;;
20894;SDS011;10607;42.066;24.742;2023-02-23T15:56:40;40.72;;;21.08;;
20894;SDS011;10607;42.066;24.742;2023-02-23T15:59:09;36.17;;;20.07;;
20894;SDS011;10607;42.066;24.742;2023-02-23T16:01:39;41.45;;;21.27;;
20894;SDS011;10607;42.066;24.742;2023-02-23T16:06:38;49.22;;;23.48;;
20894;SDS011;10607;42.066;24.742;2023-02-23T16:09:13;43.83;;;21.90;;
20894;SDS011;10607;42.066;24.742;2023-02-23T16:11:45;47.72;;;24.13;;
20894;SDS011;10607;42.066;24.742;2023-02-23T16:14:15;52.67;;;24.65;;
20894;SDS011;10607;42.066;24.742;2023-02-23T16:16:41;50.05;;;24.75;;
20894;SDS011;10607;42.066;24.742;2023-02-23T16:19:10;61.33;;;27.90;;
20894;SDS011;10607;42.066;24.742;2023-02-23T16:21:37;48.15;;;24.45;;
20894;SDS011;10607;42.066;24.742;2023-02-23T16:24:09;86.88;;;36.78;;
20894;SDS011;10607;42.066;24.742;2023-02-23T16:26:43;53.42;;;24.98;;
20894;SDS011;10607;42.066;24.742;2023-02-23T16:29:12;61.78;;;28.85;;
20894;SDS011;10607;42.066;24.742;2023-02-23T16:31:39;63.25;;;30.42;;
20894;SDS011;10607;42.066;24.742;2023-02-23T16:34:18;65.07;;;29.98;;
20894;SDS011;10607;42.066;24.742;2023-02-23T16:36:47;72.43;;;32.95;;
20894;SDS011;10607;42.066;24.742;2023-02-23T16:39:13;82.90;;;35.40;;
20894;SDS011;10607;42.066;24.742;2023-02-23T16:41:41;67.68;;;34.47;;